Time;durP1;ratioP1;P1;durP2;ratioP2;P2;SDS_P1;SDS_P2;PMS_P1;PMS_P2;Temp;Humidity;BMP_temperature;BMP_pressure;BME280_temperature;BME280_humidity;BME280_pressure;Samples;Min_cycle;Max_cycle;Signal;HPM_P1;HPM_P2
2024/04/18 00:01:50;;;;;;;10.38;2.33;;;7.10;99.90;;;6.43;100.00;101525.22;4458452;26;20019;-54
2024/04/18 00:03:51;;;;;;;8.53;2.23;;;7.20;99.90;;;6.46;100.00;101519.75;4467432;26;19999;-56
2024/04/18 00:05:52;;;;;;;7.68;2.60;;;7.20;99.90;;;6.43;100.00;101524.38;4464726;26;20762;-56
2024/04/18 00:07:53;;;;;;;9.02;3.20;;;7.20;99.90;;;6.38;100.00;101516.03;4458479;26;20019;-53
2024/04/18 00:09:54;;;;;;;10.52;3.42;;;7.10;99.90;;;6.36;100.00;101518.75;4458219;26;20032;-54
2024/04/18 00:11:54;;;;;;;10.32;3.33;;;7.10;99.90;;;6.32;100.00;101513.84;4458248;26;20011;-54
2024/04/18 00:13:55;;;;;;;8.73;2.88;;;7.10;99.90;;;6.27;100.00;101508.94;4457891;26;20462;-57
2024/04/18 00:15:56;;;;;;;13.73;3.03;;;7.10;99.90;;;6.22;100.00;101511.03;4458262;26;20352;-55
2024/04/18 00:17:58;;;;;;;8.25;2.50;;;7.00;99.90;;;6.17;100.00;101514.94;4458309;26;20464;-57
2024/04/18 00:19:58;;;;;;;6.57;2.63;;;6.90;99.90;;;6.10;100.00;101518.00;4457869;26;20000;-56
2024/04/18 00:22:02;;;;;;;12.88;3.50;;;6.90;99.90;;;6.07;100.00;101522.59;4469177;26;20032;-57
2024/04/18 00:24:04;;;;;;;9.52;3.20;;;6.90;99.90;;;6.17;100.00;101528.88;4485776;26;20003;-56
2024/04/18 00:26:04;;;;;;;12.43;2.45;;;6.90;99.90;;;6.29;100.00;101516.69;4487316;26;20162;-56
2024/04/18 00:28:05;;;;;;;10.82;2.85;;;7.00;99.90;;;6.39;100.00;101512.47;4487177;26;20022;-56
2024/04/18 00:30:07;;;;;;;6.90;2.00;;;7.10;99.90;;;6.48;100.00;101519.66;4487477;26;20383;-56
2024/04/18 00:32:08;;;;;;;9.10;2.63;;;7.20;99.90;;;6.53;100.00;101514.91;4487288;26;20011;-57
2024/04/18 00:34:10;;;;;;;8.82;2.13;;;7.20;99.90;;;6.56;100.00;101514.69;4487541;26;20011;-54
2024/04/18 00:36:10;;;;;;;14.52;3.22;;;7.30;99.90;;;6.60;100.00;101506.47;4487326;26;20013;-55
2024/04/18 00:38:13;;;;;;;6.78;2.13;;;7.30;99.90;;;6.65;100.00;101503.53;4487183;26;20003;-55
2024/04/18 00:40:14;;;;;;;6.53;2.20;;;7.40;99.90;;;6.73;100.00;101506.44;4487291;26;20003;-56
2024/04/18 00:42:14;;;;;;;7.80;2.22;;;7.40;99.90;;;6.79;100.00;101503.34;4486832;26;20105;-57
2024/04/18 00:44:15;;;;;;;10.32;2.30;;;7.50;99.90;;;6.81;100.00;101490.16;4487134;26;20019;-56
2024/04/18 00:46:16;;;;;;;8.65;2.47;;;7.60;99.90;;;6.94;100.00;101496.13;4485730;26;20482;-56
2024/04/18 00:48:17;;;;;;;9.32;2.45;;;7.60;99.90;;;7.01;100.00;101498.22;4487278;26;20353;-56
2024/04/18 00:50:18;;;;;;;9.25;2.75;;;7.70;99.90;;;7.06;100.00;101500.47;4470939;26;20070;-54
2024/04/18 00:52:20;;;;;;;6.45;2.00;;;7.70;99.90;;;7.07;100.00;101489.03;4457732;26;20004;-57
2024/04/18 00:54:21;;;;;;;10.00;2.65;;;7.80;99.90;;;7.11;100.00;101486.06;4460178;26;20000;-57
2024/04/18 00:56:22;;;;;;;10.85;2.20;;;7.80;99.90;;;7.17;100.00;101490.00;4460634;26;20363;-56
2024/04/18 00:58:25;;;;;;;10.85;3.28;;;7.90;99.90;;;7.17;100.00;101484.75;4465084;26;20035;-55
2024/04/18 01:00:26;;;;;;;7.20;2.40;;;7.90;99.90;;;7.20;100.00;101482.72;4485493;26;20003;-57
2024/04/18 01:02:29;;;;;;;9.60;2.38;;;7.90;99.90;;;7.22;100.00;101488.72;4485342;26;20014;-57
2024/04/18 01:04:31;;;;;;;5.53;2.13;;;7.90;99.90;;;7.24;100.00;101480.72;4467859;26;20004;-57
2024/04/18 01:06:32;;;;;;;15.18;3.45;;;7.90;99.90;;;7.28;100.00;101494.44;4476823;26;20012;-57
2024/04/18 01:08:33;;;;;;;25.95;3.25;;;8.00;99.90;;;7.29;100.00;101494.31;4457547;26;20004;-56
2024/04/18 01:10:34;;;;;;;8.45;2.67;;;8.00;99.90;;;7.32;100.00;101488.84;4457644;26;20019;-56
2024/04/18 01:12:35;;;;;;;8.13;2.90;;;8.00;99.90;;;7.36;100.00;101494.69;4460034;26;20000;-56
2024/04/18 01:14:36;;;;;;;10.00;3.15;;;8.00;99.90;;;7.38;100.00;101491.00;4463108;26;20004;-56
2024/04/18 01:16:37;;;;;;;10.05;2.45;;;8.10;99.90;;;7.40;100.00;101494.34;4457892;26;20015;-57
2024/04/18 01:18:38;;;;;;;12.15;3.25;;;8.10;99.90;;;7.39;100.00;101502.34;4464885;26;20012;-57
2024/04/18 01:20:39;;;;;;;7.95;2.05;;;8.10;99.90;;;7.39;100.00;101503.19;4457289;26;20018;-57
2024/04/18 01:22:40;;;;;;;12.45;3.90;;;8.10;99.90;;;7.39;100.00;101507.59;4457395;26;20000;-55
2024/04/18 01:24:41;;;;;;;7.90;2.33;;;8.10;99.90;;;7.38;100.00;101514.63;4458447;26;20008;-56
2024/04/18 01:26:42;;;;;;;6.03;2.47;;;8.10;99.90;;;7.42;100.00;101512.59;4457271;26;20028;-55
2024/04/18 01:28:42;;;;;;;10.60;2.40;;;8.10;99.90;;;7.42;100.00;101510.81;4456892;26;20027;-56
2024/04/18 01:30:44;;;;;;;7.18;2.40;;;8.10;99.90;;;7.41;100.00;101503.88;4457282;26;20028;-56
2024/04/18 01:32:45;;;;;;;8.65;2.60;;;8.10;99.90;;;7.40;100.00;101506.63;4457332;26;20004;-54
2024/04/18 01:34:46;;;;;;;7.10;2.50;;;8.10;99.90;;;7.41;100.00;101514.38;4472745;26;20039;-56
2024/04/18 01:36:48;;;;;;;10.57;2.97;;;8.10;99.90;;;7.40;100.00;101507.47;4461924;26;20000;-55
2024/04/18 01:38:49;;;;;;;6.38;2.67;;;8.10;99.90;;;7.38;100.00;101503.31;4457053;26;20004;-56
2024/04/18 01:40:50;;;;;;;9.02;2.88;;;8.10;99.90;;;7.37;100.00;101499.84;4456880;26;20077;-56
2024/04/18 01:42:50;;;;;;;5.85;2.60;;;8.10;99.90;;;7.36;100.00;101499.94;4456828;26;20036;-54
2024/04/18 01:44:52;;;;;;;9.70;3.58;;;8.10;99.90;;;7.34;100.00;101500.06;4472629;26;20516;-55
2024/04/18 01:46:53;;;;;;;14.43;3.92;;;8.10;99.90;;;7.35;100.00;101499.09;4457015;26;20106;-56
2024/04/18 01:48:54;;;;;;;9.38;2.97;;;8.10;99.90;;;7.30;100.00;101488.13;4457142;26;20008;-57
2024/04/18 01:50:55;;;;;;;6.00;2.60;;;8.10;99.90;;;7.28;100.00;101490.03;4457012;26;20531;-58
2024/04/18 01:52:56;;;;;;;5.28;2.13;;;8.00;99.90;;;7.31;100.00;101489.81;4456985;26;20542;-56
2024/04/18 01:54:59;;;;;;;6.03;2.42;;;8.00;99.90;;;7.30;100.00;101493.38;4466040;26;20102;-56
2024/04/18 01:57:00;;;;;;;6.95;3.10;;;8.00;99.90;;;7.30;100.00;101487.28;4486280;26;20014;-53
2024/04/18 01:59:04;;;;;;;9.07;2.58;;;8.00;99.90;;;7.31;100.00;101492.44;4469042;26;20008;-57
2024/04/18 02:01:04;;;;;;;9.47;3.43;;;8.00;99.90;;;7.33;100.00;101493.16;4456897;26;20035;-56
2024/04/18 02:03:05;;;;;;;12.45;2.63;;;8.00;99.90;;;7.33;100.00;101485.28;4456759;26;20126;-57
2024/04/18 02:05:06;;;;;;;10.55;3.05;;;8.10;99.90;;;7.33;100.00;101493.16;4475654;26;20475;-56
2024/04/18 02:07:07;;;;;;;7.90;3.00;;;8.10;99.90;;;7.32;100.00;101491.47;4486073;26;20439;-57
2024/04/18 02:09:08;;;;;;;11.77;3.90;;;8.10;99.90;;;7.33;100.00;101487.06;4486106;26;20004;-57
2024/04/18 02:11:09;;;;;;;12.18;2.80;;;8.10;99.90;;;7.31;100.00;101487.19;4485827;26;20015;-57
2024/04/18 02:13:11;;;;;;;7.75;2.63;;;8.10;99.90;;;7.30;100.00;101485.50;4485596;26;20032;-57
2024/04/18 02:15:11;;;;;;;11.10;2.40;;;8.10;99.90;;;7.30;100.00;101493.38;4466583;26;20004;-56
2024/04/18 02:17:12;;;;;;;9.45;2.92;;;8.10;99.90;;;7.25;100.00;101503.41;4459641;26;20032;-57
2024/04/18 02:19:13;;;;;;;8.40;2.90;;;8.00;99.90;;;7.23;100.00;101502.66;4459511;26;20005;-56
2024/04/18 02:21:14;;;;;;;9.35;3.58;;;8.00;99.90;;;7.22;100.00;101503.63;4459208;26;20045;-56
2024/04/18 02:23:15;;;;;;;10.57;3.75;;;8.00;99.90;;;7.22;100.00;101496.59;4459533;26;20397;-56
2024/04/18 02:25:16;;;;;;;9.98;3.85;;;8.00;99.90;;;7.24;100.00;101496.47;4480812;26;20000;-56
2024/04/18 02:27:16;;;;;;;9.27;3.65;;;8.00;99.90;;;7.21;100.00;101484.41;4460734;26;20008;-56
2024/04/18 02:29:17;;;;;;;10.30;3.17;;;8.00;99.90;;;7.25;100.00;101498.16;4459372;26;20018;-53
2024/04/18 02:31:18;;;;;;;10.25;3.38;;;7.90;99.90;;;7.20;100.00;101492.38;4459425;26;20019;-57
2024/04/18 02:33:19;;;;;;;9.18;3.10;;;7.90;99.90;;;7.21;100.00;101484.41;4459334;26;20000;-57
2024/04/18 02:35:20;;;;;;;10.65;3.70;;;7.90;99.90;;;7.19;100.00;101482.88;4477776;26;20031;-56
2024/04/18 02:37:21;;;;;;;15.82;4.35;;;7.90;99.90;;;7.18;100.00;101481.19;4459188;26;20001;-57
2024/04/18 02:39:22;;;;;;;12.07;3.75;;;7.90;99.90;;;7.11;100.00;101479.97;4459279;26;20019;-56
2024/04/18 02:41:23;;;;;;;10.63;4.22;;;7.90;99.90;;;7.14;100.00;101479.72;4459586;26;20348;-57
2024/04/18 02:43:25;;;;;;;10.15;3.08;;;7.90;99.90;;;7.14;100.00;101469.25;4458849;26;20004;-58
2024/04/18 02:45:26;;;;;;;11.60;4.03;;;7.80;99.90;;;7.13;100.00;101476.31;4473536;26;20000;-57
2024/04/18 02:47:26;;;;;;;9.32;3.35;;;7.90;99.90;;;7.14;100.00;101466.63;4459290;26;20328;-55
2024/04/18 02:49:27;;;;;;;9.63;3.67;;;7.80;99.90;;;7.14;100.00;101471.88;4459400;26;20004;-56
2024/04/18 02:51:28;;;;;;;8.38;3.42;;;7.90;99.90;;;7.15;100.00;101470.91;4459152;26;20027;-57
2024/04/18 02:53:29;;;;;;;8.48;3.08;;;7.80;99.90;;;7.13;100.00;101472.84;4458960;26;20077;-56
2024/04/18 02:55:30;;;;;;;10.27;3.95;;;7.80;99.90;;;7.13;100.00;101478.09;4475720;26;20015;-58
2024/04/18 02:57:31;;;;;;;9.55;3.53;;;7.80;99.90;;;7.13;100.00;101475.47;4487932;26;20003;-56
2024/04/18 02:59:31;;;;;;;8.55;3.08;;;7.80;99.90;;;7.13;100.00;101473.69;4469016;26;20375;-57
2024/04/18 03:01:33;;;;;;;8.30;2.95;;;7.80;99.90;;;7.14;100.00;101485.81;4488288;26;20011;-56
2024/04/18 03:03:34;;;;;;;12.02;3.28;;;7.80;99.90;;;7.14;100.00;101490.22;4483409;26;20097;-57
2024/04/18 03:05:35;;;;;;;12.57;4.90;;;7.80;99.90;;;7.13;100.00;101496.44;4465192;26;20012;-57
2024/04/18 03:07:36;;;;;;;5.13;2.78;;;7.80;99.90;;;7.14;100.00;101501.56;4458851;26;20040;-56
2024/04/18 03:09:37;;;;;;;11.20;3.97;;;7.80;99.90;;;7.17;100.00;101501.34;4458955;26;20036;-56
2024/04/18 03:11:37;;;;;;;15.02;3.55;;;7.90;99.90;;;7.18;100.00;101502.19;4458852;26;20008;-56
2024/04/18 03:13:38;;;;;;;6.25;2.85;;;7.90;99.90;;;7.20;100.00;101501.09;4458557;26;20032;-57
2024/04/18 03:15:44;;;;;;;7.43;3.17;;;7.90;99.90;;;7.24;100.00;101499.94;4459146;26;20019;-57
2024/04/18 03:17:45;;;;;;;11.15;3.20;;;7.90;99.90;;;7.26;100.00;101504.25;4458931;26;20386;-58
2024/04/18 03:19:46;;;;;;;11.82;3.55;;;7.90;99.90;;;7.27;100.00;101501.47;4458815;26;20012;-56
2024/04/18 03:21:47;;;;;;;10.75;3.60;;;8.00;99.90;;;7.30;100.00;101503.03;4458675;26;20004;-57
2024/04/18 03:23:48;;;;;;;6.60;2.70;;;8.00;99.90;;;7.30;100.00;101505.66;4458794;26;20004;-57
2024/04/18 03:25:49;;;;;;;6.88;3.15;;;8.00;99.90;;;7.32;100.00;101507.22;4458867;26;20359;-56
2024/04/18 03:27:50;;;;;;;6.47;3.63;;;8.00;99.90;;;7.32;100.00;101509.03;4457549;26;20004;-55
2024/04/18 03:29:51;;;;;;;6.53;3.17;;;8.00;99.90;;;7.31;100.00;101512.59;4458902;26;20015;-55
2024/04/18 03:31:52;;;;;;;9.77;2.75;;;8.00;99.90;;;7.29;100.00;101507.44;4458749;26;20004;-56
2024/04/18 03:33:53;;;;;;;7.70;2.58;;;8.00;99.90;;;7.31;100.00;101512.59;4458561;26;20036;-57
2024/04/18 03:35:53;;;;;;;5.28;2.58;;;8.00;99.90;;;7.32;100.00;101507.22;4465389;26;20032;-56
2024/04/18 03:37:54;;;;;;;9.10;3.53;;;8.00;99.90;;;7.34;100.00;101513.19;4488256;26;20027;-57
2024/04/18 03:39:58;;;;;;;9.48;3.47;;;8.00;99.90;;;7.37;100.00;101510.34;4465175;26;20011;-57
2024/04/18 03:41:59;;;;;;;12.02;3.80;;;8.00;99.90;;;7.39;100.00;101516.28;4458382;26;20585;-56
2024/04/18 03:43:59;;;;;;;5.95;2.85;;;8.10;99.90;;;7.42;100.00;101521.31;4458412;26;20031;-56
2024/04/18 03:46:02;;;;;;;5.47;2.80;;;8.10;99.90;;;7.43;100.00;101515.13;4458568;26;20378;-55
2024/04/18 03:48:03;;;;;;;5.68;2.58;;;8.10;99.90;;;7.44;100.00;101518.56;4458590;26;20000;-55
2024/04/18 03:50:05;;;;;;;6.57;2.47;;;8.10;99.90;;;7.41;100.00;101503.88;4458328;26;20011;-54
2024/04/18 03:52:05;;;;;;;8.98;3.58;;;8.20;99.90;;;7.44;100.00;101515.94;4458583;26;20016;-56
2024/04/18 03:54:06;;;;;;;12.45;3.38;;;8.10;99.90;;;7.43;100.00;101514.28;4459244;26;20331;-58
2024/04/18 03:56:08;;;;;;;8.45;2.40;;;8.10;99.90;;;7.43;100.00;101523.00;4464279;26;20016;-56
2024/04/18 03:58:09;;;;;;;5.72;2.60;;;8.10;99.90;;;7.45;100.00;101515.00;4486267;26;20370;-57
2024/04/18 04:00:10;;;;;;;10.13;3.97;;;8.20;99.90;;;7.41;100.00;101519.63;4487855;26;20000;-56
2024/04/18 04:02:11;;;;;;;7.65;2.47;;;8.10;99.90;;;7.42;100.00;101520.47;4487341;26;20010;-57
2024/04/18 04:04:12;;;;;;;6.47;2.75;;;8.10;99.90;;;7.42;100.00;101523.94;4473623;26;20000;-55
2024/04/18 04:06:15;;;;;;;6.80;3.25;;;8.10;99.90;;;7.47;100.00;101521.78;4458429;26;20032;-56
2024/04/18 04:08:16;;;;;;;4.88;2.90;;;8.10;99.90;;;7.40;100.00;101523.22;4474160;26;20000;-54
2024/04/18 04:10:17;;;;;;;7.50;3.05;;;8.10;99.90;;;7.40;100.00;101523.22;4487755;26;19999;-57
2024/04/18 04:12:17;;;;;;;8.02;3.22;;;8.10;99.90;;;7.42;100.00;101529.19;4487540;26;20035;-55
2024/04/18 04:14:18;;;;;;;6.25;2.40;;;8.10;99.90;;;7.42;100.00;101526.56;4487793;26;20366;-56
2024/04/18 04:16:22;;;;;;;6.85;2.42;;;8.10;99.90;;;7.44;100.00;101534.31;4487734;26;20004;-57
2024/04/18 04:18:26;;;;;;;4.95;2.47;;;8.10;99.90;;;7.46;100.00;101529.81;4487685;26;20003;-56
2024/04/18 04:20:27;;;;;;;5.25;2.65;;;8.10;99.90;;;7.44;100.00;101531.69;4487630;26;19999;-57
2024/04/18 04:22:27;;;;;;;7.93;2.63;;;8.10;99.90;;;7.44;100.00;101534.31;4487344;26;20076;-56
2024/04/18 04:24:28;;;;;;;5.68;2.40;;;8.10;99.90;;;7.44;100.00;101539.56;4487447;26;20015;-55
2024/04/18 04:26:33;;;;;;;3.70;2.20;;;8.10;99.90;;;7.44;100.00;101534.31;4487643;26;20015;-56
2024/04/18 04:28:34;;;;;;;9.85;2.92;;;8.10;99.90;;;7.45;100.00;101539.47;4487263;26;20007;-56
2024/04/18 04:30:34;;;;;;;9.05;2.15;;;8.20;99.90;;;7.46;100.00;101540.28;4487498;26;20032;-55
2024/04/18 04:32:36;;;;;;;5.25;2.42;;;8.20;99.90;;;7.45;100.00;101541.25;4487363;26;20004;-57
2024/04/18 04:34:36;;;;;;;6.53;2.30;;;8.10;99.90;;;7.46;100.00;101538.50;4482104;26;20022;-57
2024/04/18 04:36:37;;;;;;;4.20;2.10;;;8.10;99.90;;;7.46;100.00;101543.75;4458018;26;20000;-56
2024/04/18 04:38:38;;;;;;;5.97;2.00;;;8.20;99.90;;;7.46;100.00;101551.63;4456440;26;20011;-55
2024/04/18 04:40:39;;;;;;;4.22;2.03;;;8.20;99.90;;;7.49;100.00;101559.28;4457652;26;20011;-56
2024/04/18 04:42:40;;;;;;;3.58;1.95;;;8.20;99.90;;;7.50;100.00;101555.69;4457663;26;20035;-57
2024/04/18 04:44:41;;;;;;;4.10;1.95;;;8.20;99.90;;;7.50;100.00;101553.06;4457734;26;20034;-56
2024/04/18 04:46:43;;;;;;;4.35;2.10;;;8.20;99.90;;;7.51;100.00;101561.78;4457973;26;20004;-56
2024/04/18 04:48:45;;;;;;;6.95;2.15;;;8.20;99.90;;;7.47;100.00;101555.91;4457798;26;20040;-54
2024/04/18 04:51:01;;;;;;;7.40;2.65;;;8.20;99.90;;;7.41;100.00;101559.00;4457661;26;20004;-56
2024/04/18 04:53:02;;;;;;;4.45;1.70;;;8.20;99.90;;;7.29;100.00;101559.91;4457530;26;20038;-57
2024/04/18 04:55:03;;;;;;;4.53;1.92;;;8.10;99.90;;;7.16;100.00;101559.19;4467199;26;20016;-57
2024/04/18 04:57:04;;;;;;;4.82;2.05;;;8.00;99.90;;;7.03;100.00;101566.28;4457455;26;20476;-57
2024/04/18 04:59:05;;;;;;;4.32;2.10;;;7.80;99.90;;;6.91;100.00;101567.19;4475704;26;20003;-53
2024/04/18 05:01:07;;;;;;;4.05;1.90;;;7.70;99.90;;;6.77;100.00;101570.81;4468433;26;20032;-57
2024/04/18 05:03:07;;;;;;;5.95;2.25;;;7.50;99.90;;;6.67;100.00;101575.88;4457506;26;20004;-57
2024/04/18 05:05:08;;;;;;;6.65;1.90;;;7.40;99.90;;;6.56;100.00;101573.22;4473250;26;20473;-56
2024/04/18 05:07:09;;;;;;;8.10;2.30;;;7.30;99.90;;;6.47;100.00;101584.34;4457523;26;20365;-56
2024/04/18 05:09:11;;;;;;;6.20;2.35;;;7.20;99.90;;;6.34;100.00;101586.16;4457347;26;20015;-56
2024/04/18 05:11:12;;;;;;;6.30;2.15;;;7.10;99.90;;;6.29;100.00;101596.13;4457288;26;20023;-56
2024/04/18 05:13:14;;;;;;;6.97;2.20;;;7.00;99.90;;;6.22;100.00;101591.41;4457113;26;20005;-56
2024/04/18 05:15:15;;;;;;;6.25;2.45;;;6.90;99.90;;;6.15;100.00;101593.63;4457381;26;20050;-54
2024/04/18 05:17:16;;;;;;;6.70;2.30;;;6.90;99.90;;;6.07;100.00;101602.00;4457244;26;20012;-56
2024/04/18 05:19:19;;;;;;;7.05;2.50;;;6.80;99.90;;;6.01;100.00;101602.44;4462729;26;20463;-56
2024/04/18 05:21:20;;;;;;;7.70;2.67;;;6.70;99.90;;;5.93;100.00;101610.00;4486752;26;20003;-57
2024/04/18 05:23:21;;;;;;;6.90;2.38;;;6.60;99.90;;;5.89;100.00;101607.66;4486654;26;20018;-56
2024/04/18 05:25:24;;;;;;;5.50;2.08;;;6.60;99.90;;;5.85;100.00;101616.66;4465764;26;20019;-56
2024/04/18 05:27:25;;;;;;;10.30;2.58;;;6.60;99.90;;;5.76;100.00;101607.66;4480673;26;20008;-57
2024/04/18 05:31:47;;;;;;;7.38;2.45;;;6.50;99.90;;;5.72;100.00;101627.13;4474948;26;20153;-54
2024/04/18 05:33:48;;;;;;;5.82;2.30;;;6.40;99.90;;;5.68;100.00;101620.41;4458417;26;20015;-54
2024/04/18 05:35:50;;;;;;;7.38;2.60;;;6.40;99.90;;;5.65;100.00;101625.00;4457163;26;20036;-56
2024/04/18 05:37:51;;;;;;;4.68;2.83;;;6.40;99.90;;;5.63;100.00;101629.50;4457280;26;20001;-52
2024/04/18 05:39:52;;;;;;;5.13;1.98;;;6.30;99.90;;;5.63;100.00;101634.75;4457368;26;20044;-56
2024/04/18 05:41:53;;;;;;;5.10;2.63;;;6.30;99.90;;;5.58;100.00;101640.31;4456855;26;20313;-57
2024/04/18 05:43:55;;;;;;;4.70;2.58;;;6.30;99.90;;;5.57;100.00;101642.06;4456723;26;20000;-56
2024/04/18 05:45:55;;;;;;;4.80;2.28;;;6.20;99.90;;;5.53;100.00;101637.97;4457195;26;20018;-56
2024/04/18 05:47:56;;;;;;;7.35;2.33;;;6.20;99.90;;;5.53;100.00;101642.38;4456991;26;20000;-56
2024/04/18 05:49:57;;;;;;;6.07;2.00;;;6.20;99.90;;;5.52;100.00;101648.56;4458035;26;20019;-56
2024/04/18 05:51:58;;;;;;;8.20;2.50;;;6.20;99.90;;;5.48;100.00;101642.69;4459705;26;20032;-56
2024/04/18 05:53:59;;;;;;;4.45;1.88;;;6.20;99.90;;;5.46;100.00;101643.72;4459870;26;20004;-56
2024/04/18 05:55:59;;;;;;;4.88;2.25;;;6.20;99.90;;;5.45;100.00;101648.13;4468707;26;20014;-56
2024/04/18 05:58:00;;;;;;;6.82;2.45;;;6.20;99.90;;;5.45;100.00;101649.91;4461229;26;20015;-56
2024/04/18 06:00:01;;;;;;;5.43;2.47;;;6.20;99.90;;;5.46;100.00;101649.81;4488925;26;20000;-55
2024/04/18 06:02:02;;;;;;;5.18;2.20;;;6.20;99.90;;;5.47;100.00;101654.09;4459607;26;20035;-55
2024/04/18 06:04:03;;;;;;;3.83;2.10;;;6.20;99.90;;;5.46;100.00;101660.28;4471463;26;20012;-55
2024/04/18 06:06:04;;;;;;;5.57;2.17;;;6.20;99.90;;;5.49;100.00;101657.47;4464288;26;20000;-56
2024/04/18 06:08:05;;;;;;;7.35;2.25;;;6.20;99.90;;;5.55;100.00;101664.88;4459562;26;20447;-55
2024/04/18 06:10:07;;;;;;;5.50;2.25;;;6.20;99.90;;;5.61;100.00;101675.91;4459561;26;20004;-56
2024/04/18 06:12:08;;;;;;;4.32;2.13;;;6.30;99.90;;;5.65;100.00;101672.13;4459462;26;20033;-56
2024/04/18 06:14:09;;;;;;;4.07;2.40;;;6.30;99.90;;;5.71;100.00;101675.16;4459451;26;20004;-56
2024/04/18 06:16:10;;;;;;;6.28;2.40;;;6.40;99.90;;;5.79;100.00;101677.28;4459656;26;20004;-57
2024/04/18 06:18:12;;;;;;;4.78;2.10;;;6.40;99.90;;;5.86;100.00;101687.28;4459735;26;20045;-54
2024/04/18 06:20:12;;;;;;;7.40;2.30;;;6.50;99.90;;;5.93;100.00;101682.47;4459557;26;20014;-57
2024/04/18 06:22:13;;;;;;;9.40;2.92;;;6.50;99.90;;;5.98;100.00;101685.59;4463147;26;20002;-56
2024/04/18 06:24:14;;;;;;;6.53;2.40;;;6.60;99.90;;;6.04;100.00;101690.44;4459568;26;20001;-56
2024/04/18 06:26:15;;;;;;;7.93;2.92;;;6.70;99.90;;;6.10;100.00;101696.09;4459499;26;20454;-56
2024/04/18 06:28:16;;;;;;;8.00;3.25;;;6.70;99.90;;;6.23;100.00;101703.97;4459270;26;20015;-57
2024/04/18 06:30:17;;;;;;;5.10;3.00;;;6.80;99.90;;;6.28;100.00;101698.41;4480854;26;19999;-57
2024/04/18 06:32:18;;;;;;;7.25;3.10;;;6.90;99.90;;;6.32;100.00;101705.97;4488754;26;20072;-57
2024/04/18 06:34:19;;;;;;;7.45;2.80;;;6.90;99.90;;;6.36;100.00;101704.78;4488665;26;20014;-55
2024/04/18 06:36:20;;;;;;;7.13;2.78;;;7.00;99.90;;;6.41;100.00;101718.44;4488756;26;20011;-55
2024/04/18 06:38:21;;;;;;;9.38;3.13;;;7.00;99.90;;;6.46;100.00;101718.09;4488652;26;20004;-56
2024/04/18 06:40:23;;;;;;;6.63;2.88;;;7.10;99.90;;;6.50;100.00;101725.66;4488706;26;20000;-56
2024/04/18 06:42:24;;;;;;;8.93;3.30;;;7.10;99.90;;;6.55;100.00;101725.34;4488302;26;20039;-55
2024/04/18 06:44:25;;;;;;;7.00;2.88;;;7.20;99.90;;;6.60;100.00;101729.31;4488655;26;20451;-57
2024/04/18 06:46:26;;;;;;;9.85;2.90;;;7.20;99.90;;;6.63;100.00;101726.47;4488599;26;20035;-55
2024/04/18 06:48:27;;;;;;;6.65;3.08;;;7.30;99.90;;;6.66;100.00;101731.50;4488441;26;20003;-55
2024/04/18 06:50:28;;;;;;;6.63;2.72;;;7.30;99.90;;;6.68;100.00;101734.03;4488732;26;20010;-56
2024/04/18 06:52:29;;;;;;;10.07;3.75;;;7.30;99.90;;;6.72;100.00;101729.41;4488907;26;20039;-57
2024/04/18 06:54:30;;;;;;;10.90;3.13;;;7.40;99.90;;;6.76;100.00;101736.09;4466952;26;20011;-55
2024/04/18 06:56:30;;;;;;;7.47;3.05;;;7.40;99.90;;;6.78;100.00;101739.47;4462580;26;20029;-56
2024/04/18 06:58:31;;;;;;;11.15;3.63;;;7.40;99.90;;;6.83;100.00;101739.97;4466645;26;20476;-54
2024/04/18 07:00:33;;;;;;;5.65;3.05;;;7.50;99.90;;;6.86;100.00;101743.25;4474676;26;20334;-57
2024/04/18 07:02:34;;;;;;;8.93;2.78;;;7.50;99.90;;;6.89;100.00;101747.41;4487449;26;20003;-56
2024/04/18 07:04:36;;;;;;;7.57;2.60;;;7.50;99.90;;;6.88;100.00;101745.75;4476234;26;20506;-56
2024/04/18 07:06:37;;;;;;;7.47;2.60;;;7.60;99.90;;;6.92;100.00;101749.84;4459077;26;20004;-54
2024/04/18 07:08:38;;;;;;;6.28;2.90;;;7.60;99.90;;;6.92;100.00;101755.91;4459127;26;20004;-57
2024/04/18 07:10:39;;;;;;;12.02;3.67;;;7.60;99.90;;;6.96;100.00;101759.19;4459248;26;20343;-56
2024/04/18 07:12:40;;;;;;;8.70;3.50;;;7.60;99.90;;;7.01;100.00;101759.69;4460403;26;20011;-56
2024/04/18 07:14:41;;;;;;;6.90;2.88;;;7.70;99.90;;;7.06;100.00;101757.56;4458807;26;20019;-55
2024/04/18 07:16:42;;;;;;;6.22;2.80;;;7.70;99.90;;;7.03;100.00;101765.66;4457969;26;20014;-56
2024/04/18 07:18:42;;;;;;;8.10;2.70;;;7.70;99.90;;;7.03;100.00;101770.88;4458832;26;20011;-56
2024/04/18 07:20:43;;;;;;;8.85;2.47;;;7.70;99.90;;;7.05;100.00;101771.59;4458934;26;20004;-57
2024/04/18 07:22:44;;;;;;;6.93;2.35;;;7.70;99.90;;;7.10;100.00;101764.28;4459273;26;20040;-56
2024/04/18 07:24:45;;;;;;;8.48;2.50;;;7.80;99.90;;;7.16;100.00;101776.97;4474432;26;20028;-57
2024/04/18 07:26:46;;;;;;;6.38;3.22;;;7.80;99.90;;;7.16;100.00;101772.56;4463084;26;20028;-55
2024/04/18 07:28:47;;;;;;;7.40;2.88;;;7.80;99.90;;;7.18;100.00;101780.31;4483948;26;20010;-56
2024/04/18 07:30:48;;;;;;;9.48;2.95;;;7.90;99.90;;;7.16;100.00;101790.09;4488183;26;20031;-56
2024/04/18 07:32:51;;;;;;;11.25;3.28;;;7.90;99.90;;;7.14;100.00;101777.06;4486493;26;20065;-55
2024/04/18 07:34:51;;;;;;;2.95;1.70;;;7.90;99.90;;;7.19;100.00;101787.25;4459749;26;20037;-57
2024/04/18 07:36:52;;;;;;;4.60;2.47;;;7.90;99.90;;;7.22;100.00;101793.13;4461946;26;20019;-56
2024/04/18 07:38:55;;;;;;;5.18;2.10;;;7.90;99.90;;;7.27;100.00;101787.53;4458665;26;20004;-56
2024/04/18 07:40:56;;;;;;;6.57;1.90;;;8.00;99.90;;;7.31;100.00;101791.63;4458733;26;20087;-56
2024/04/18 07:42:57;;;;;;;3.90;2.28;;;8.00;99.90;;;7.38;100.00;101803.34;4461795;26;20029;-57
2024/04/18 07:44:58;;;;;;;7.45;1.90;;;8.10;99.90;;;7.40;100.00;101801.47;4463242;26;20015;-55
2024/04/18 07:46:59;;;;;;;5.40;2.08;;;8.10;99.90;;;7.51;100.00;101795.44;4458659;26;20000;-57
2024/04/18 07:49:00;;;;;;;4.75;2.20;;;8.20;99.90;;;7.49;100.00;101803.44;4458389;26;20339;-57
2024/04/18 07:51:01;;;;;;;6.13;1.65;;;8.20;99.90;;;7.62;100.00;101798.09;4459023;26;20036;-57
2024/04/18 07:53:02;;;;;;;6.80;2.20;;;8.20;99.90;;;7.62;100.00;101796.31;4472547;26;20447;-57
2024/04/18 07:55:03;;;;;;;6.10;2.35;;;8.30;99.90;;;7.68;100.00;101802.91;4473834;26;20000;-57
2024/04/18 07:57:04;;;;;;;4.05;1.67;;;8.40;99.90;;;7.71;100.00;101798.28;4468795;26;20189;-54
2024/04/18 07:59:04;;;;;;;3.92;2.08;;;8.40;99.90;;;7.77;100.00;101813.59;4466231;26;20024;-55
2024/04/18 08:01:11;;;;;;;4.97;1.80;;;8.40;99.90;;;7.83;100.00;101812.31;4476242;26;20047;-57
2024/04/18 08:03:12;;;;;;;6.15;1.80;;;8.50;99.90;;;7.91;100.00;101817.00;4467758;26;20471;-58
2024/04/18 08:05:13;;;;;;;5.82;1.80;;;8.50;99.90;;;7.97;100.00;101809.53;4467357;26;20000;-56
2024/04/18 08:07:15;;;;;;;7.63;2.33;;;8.60;99.90;;;8.03;100.00;101810.84;4473865;26;19999;-57
2024/04/18 08:09:15;;;;;;;6.30;1.67;;;8.70;99.90;;;8.08;100.00;101821.84;4482828;26;20004;-54
2024/04/18 08:11:16;;;;;;;5.00;1.48;;;8.70;99.90;;;8.14;100.00;101821.41;4487896;26;20450;-56
2024/04/18 08:13:17;;;;;;;4.40;1.83;;;8.80;99.90;;;8.24;100.00;101815.31;4479918;26;20543;-56
2024/04/18 08:15:18;;;;;;;6.70;2.20;;;8.90;99.90;;;8.44;100.00;101824.41;4458380;26;20024;-57
2024/04/18 08:17:19;;;;;;;5.30;1.50;;;9.00;99.90;;;8.63;100.00;101832.53;4458571;26;20460;-58
2024/04/18 08:19:19;;;;;;;5.15;1.30;;;9.10;99.90;;;8.69;100.00;101831.28;4458225;26;20036;-57
2024/04/18 08:21:20;;;;;;;7.40;1.70;;;9.20;99.90;;;8.76;100.00;101835.94;4457735;26;20000;-57
2024/04/18 08:23:22;;;;;;;9.82;1.92;;;9.30;99.90;;;8.94;100.00;101835.47;4466241;26;20389;-56
2024/04/18 08:25:24;;;;;;;8.98;2.03;;;9.40;99.90;;;9.20;100.00;101842.19;4465074;26;20004;-57
2024/04/18 08:27:25;;;;;;;6.03;1.65;;;9.60;99.90;;;9.52;100.00;101844.91;4457835;26;20016;-57
2024/04/18 08:29:26;;;;;;;3.63;1.50;;;9.90;99.90;;;9.76;100.00;101845.56;4458152;26;20078;-56
2024/04/18 08:31:27;;;;;;;4.72;1.50;;;10.10;99.90;;;9.90;100.00;101832.94;4458095;26;20081;-55